sensor_id;sensor_type;location;lat;lon;timestamp;P1;durP1;ratioP1;P2;durP2;ratioP2
3563;SDS011;1796;52.388;13.096;2023-02-23T00:05:35;28.27;;;6.90;;
3563;SDS011;1796;52.388;13.096;2023-02-23T00:08:06;21.17;;;7.10;;
3563;SDS011;1796;52.388;13.096;2023-02-23T00:11:06;17.90;;;6.87;;
3563;SDS011;1796;52.388;13.096;2023-02-23T00:13:58;18.83;;;7.77;;
3563;SDS011;1796;52.388;13.096;2023-02-23T00:16:57;25.17;;;7.70;;
3563;SDS011;1796;52.388;13.096;2023-02-23T00:19:27;32.70;;;7.80;;
3563;SDS011;1796;52.388;13.096;2023-02-23T00:22:08;31.00;;;7.20;;
3563;SDS011;1796;52.388;13.096;2023-02-23T00:24:45;33.03;;;7.77;;
3563;SDS011;1796;52.388;13.096;2023-02-23T00:27:47;16.33;;;6.97;;
3563;SDS011;1796;52.388;13.096;2023-02-23T00:30:19;25.10;;;8.23;;
3563;SDS011;1796;52.388;13.096;2023-02-23T00:33:02;26.47;;;7.83;;
3563;SDS011;1796;52.388;13.096;2023-02-23T00:35:43;23.40;;;7.50;;
3563;SDS011;1796;52.388;13.096;2023-02-23T00:38:13;29.83;;;8.43;;
3563;SDS011;1796;52.388;13.096;2023-02-23T00:41:20;24.10;;;7.40;;
3563;SDS011;1796;52.388;13.096;2023-02-23T00:43:54;16.77;;;8.03;;
3563;SDS011;1796;52.388;13.096;2023-02-23T00:46:46;28.37;;;8.10;;
3563;SDS011;1796;52.388;13.096;2023-02-23T00:49:31;20.73;;;7.67;;
3563;SDS011;1796;52.388;13.096;2023-02-23T00:52:47;29.27;;;8.73;;
3563;SDS011;1796;52.388;13.096;2023-02-23T00:55:57;31.47;;;8.50;;
3563;SDS011;1796;52.388;13.096;2023-02-23T00:58:49;24.90;;;8.53;;
3563;SDS011;1796;52.388;13.096;2023-02-23T01:46:36;26.53;;;10.20;;
3563;SDS011;1796;52.388;13.096;2023-02-23T02:25:42;40.67;;;12.67;;
3563;SDS011;1796;52.388;13.096;2023-02-23T02:43:11;38.87;;;11.97;;
3563;SDS011;1796;52.388;13.096;2023-02-23T02:46:31;41.23;;;14.53;;
3563;SDS011;1796;52.388;13.096;2023-02-23T03:03:40;37.60;;;13.63;;
3563;SDS011;1796;52.388;13.096;2023-02-23T03:06:56;33.60;;;12.60;;
3563;SDS011;1796;52.388;13.096;2023-02-23T03:14:27;37.10;;;13.10;;
3563;SDS011;1796;52.388;13.096;2023-02-23T03:23:51;34.37;;;12.30;;
3563;SDS011;1796;52.388;13.096;2023-02-23T03:27:14;40.60;;;13.50;;
3563;SDS011;1796;52.388;13.096;2023-02-23T03:34:11;26.63;;;12.80;;
3563;SDS011;1796;52.388;13.096;2023-02-23T03:40:40;33.47;;;12.57;;
3563;SDS011;1796;52.388;13.096;2023-02-23T03:46:00;26.43;;;12.53;;
3563;SDS011;1796;52.388;13.096;2023-02-23T03:50:19;31.20;;;12.87;;
3563;SDS011;1796;52.388;13.096;2023-02-23T04:07:17;28.23;;;13.67;;
3563;SDS011;1796;52.388;13.096;2023-02-23T04:17:03;32.60;;;12.83;;
3563;SDS011;1796;52.388;13.096;2023-02-23T04:20:20;33.73;;;13.80;;
3563;SDS011;1796;52.388;13.096;2023-02-23T04:23:38;33.27;;;14.40;;
3563;SDS011;1796;52.388;13.096;2023-02-23T04:30:42;32.20;;;14.60;;
3563;SDS011;1796;52.388;13.096;2023-02-23T04:51:33;44.33;;;15.70;;
3563;SDS011;1796;52.388;13.096;2023-02-23T04:54:01;39.90;;;15.97;;
3563;SDS011;1796;52.388;13.096;2023-02-23T05:10:26;38.67;;;14.77;;
3563;SDS011;1796;52.388;13.096;2023-02-23T05:17:20;44.03;;;14.07;;
3563;SDS011;1796;52.388;13.096;2023-02-23T05:20:59;34.73;;;14.90;;
3563;SDS011;1796;52.388;13.096;2023-02-23T05:24:24;47.40;;;14.30;;
3563;SDS011;1796;52.388;13.096;2023-02-23T05:33:41;41.53;;;15.93;;
3563;SDS011;1796;52.388;13.096;2023-02-23T05:36:12;41.80;;;14.87;;
3563;SDS011;1796;52.388;13.096;2023-02-23T05:38:41;43.70;;;14.43;;
3563;SDS011;1796;52.388;13.096;2023-02-23T05:41:13;41.03;;;15.73;;
3563;SDS011;1796;52.388;13.096;2023-02-23T05:43:49;40.33;;;15.80;;
3563;SDS011;1796;52.388;13.096;2023-02-23T05:46:26;37.67;;;14.00;;
3563;SDS011;1796;52.388;13.096;2023-02-23T05:49:09;37.00;;;14.47;;
3563;SDS011;1796;52.388;13.096;2023-02-23T05:52:01;33.40;;;15.90;;
3563;SDS011;1796;52.388;13.096;2023-02-23T05:54:31;37.57;;;16.07;;
3563;SDS011;1796;52.388;13.096;2023-02-23T06:00:28;43.10;;;15.00;;
3563;SDS011;1796;52.388;13.096;2023-02-23T06:02:55;42.03;;;16.67;;
3563;SDS011;1796;52.388;13.096;2023-02-23T06:05:23;38.50;;;16.00;;
3563;SDS011;1796;52.388;13.096;2023-02-23T06:07:59;38.17;;;15.87;;
3563;SDS011;1796;52.388;13.096;2023-02-23T06:10:26;45.30;;;16.77;;
3563;SDS011;1796;52.388;13.096;2023-02-23T06:12:53;34.00;;;14.97;;
3563;SDS011;1796;52.388;13.096;2023-02-23T06:15:20;37.70;;;16.40;;
3563;SDS011;1796;52.388;13.096;2023-02-23T06:17:47;41.60;;;16.70;;
3563;SDS011;1796;52.388;13.096;2023-02-23T06:20:14;33.83;;;16.33;;
3563;SDS011;1796;52.388;13.096;2023-02-23T06:22:43;38.27;;;15.20;;
3563;SDS011;1796;52.388;13.096;2023-02-23T06:25:10;46.23;;;15.60;;
3563;SDS011;1796;52.388;13.096;2023-02-23T06:27:40;49.93;;;16.13;;
3563;SDS011;1796;52.388;13.096;2023-02-23T06:30:30;42.47;;;15.97;;
3563;SDS011;1796;52.388;13.096;2023-02-23T06:33:03;33.10;;;15.10;;
3563;SDS011;1796;52.388;13.096;2023-02-23T06:35:34;33.03;;;16.10;;
3563;SDS011;1796;52.388;13.096;2023-02-23T06:41:34;38.80;;;15.73;;
3563;SDS011;1796;52.388;13.096;2023-02-23T06:48:10;54.37;;;16.10;;
3563;SDS011;1796;52.388;13.096;2023-02-23T06:51:09;34.80;;;16.00;;
3563;SDS011;1796;52.388;13.096;2023-02-23T06:59:44;45.73;;;16.83;;
3563;SDS011;1796;52.388;13.096;2023-02-23T07:02:42;50.97;;;17.07;;
3563;SDS011;1796;52.388;13.096;2023-02-23T07:06:07;37.83;;;15.57;;
3563;SDS011;1796;52.388;13.096;2023-02-23T07:09:20;47.37;;;15.67;;
3563;SDS011;1796;52.388;13.096;2023-02-23T07:14:40;46.00;;;16.37;;
3563;SDS011;1796;52.388;13.096;2023-02-23T07:17:07;36.03;;;16.53;;
3563;SDS011;1796;52.388;13.096;2023-02-23T07:19:34;35.43;;;15.33;;
3563;SDS011;1796;52.388;13.096;2023-02-23T07:22:12;34.20;;;14.90;;
3563;SDS011;1796;52.388;13.096;2023-02-23T07:24:39;39.87;;;14.13;;
3563;SDS011;1796;52.388;13.096;2023-02-23T07:27:06;44.97;;;15.53;;
3563;SDS011;1796;52.388;13.096;2023-02-23T07:29:33;39.43;;;15.83;;
3563;SDS011;1796;52.388;13.096;2023-02-23T07:32:02;35.20;;;15.43;;
3563;SDS011;1796;52.388;13.096;2023-02-23T07:34:29;36.00;;;15.77;;
3563;SDS011;1796;52.388;13.096;2023-02-23T07:36:55;34.10;;;15.83;;
3563;SDS011;1796;52.388;13.096;2023-02-23T07:39:22;39.50;;;15.03;;
3563;SDS011;1796;52.388;13.096;2023-02-23T07:41:50;31.10;;;14.90;;
3563;SDS011;1796;52.388;13.096;2023-02-23T07:44:17;40.47;;;15.90;;
3563;SDS011;1796;52.388;13.096;2023-02-23T07:46:44;33.33;;;14.40;;
3563;SDS011;1796;52.388;13.096;2023-02-23T07:49:12;39.93;;;15.40;;
3563;SDS011;1796;52.388;13.096;2023-02-23T07:51:40;34.77;;;15.87;;
3563;SDS011;1796;52.388;13.096;2023-02-23T07:54:07;33.10;;;13.60;;
3563;SDS011;1796;52.388;13.096;2023-02-23T07:56:34;33.83;;;14.30;;
3563;SDS011;1796;52.388;13.096;2023-02-23T07:59:01;28.67;;;14.37;;
3563;SDS011;1796;52.388;13.096;2023-02-23T08:01:28;38.00;;;15.50;;
3563;SDS011;1796;52.388;13.096;2023-02-23T08:03:55;41.83;;;15.87;;
3563;SDS011;1796;52.388;13.096;2023-02-23T08:06:23;41.07;;;15.23;;
3563;SDS011;1796;52.388;13.096;2023-02-23T08:08:50;32.37;;;13.73;;
3563;SDS011;1796;52.388;13.096;2023-02-23T08:11:17;31.17;;;14.20;;
3563;SDS011;1796;52.388;13.096;2023-02-23T08:13:44;30.47;;;15.07;;
3563;SDS011;1796;52.388;13.096;2023-02-23T08:16:11;40.97;;;14.50;;
3563;SDS011;1796;52.388;13.096;2023-02-23T08:18:40;36.50;;;15.30;;
3563;SDS011;1796;52.388;13.096;2023-02-23T08:21:07;35.10;;;15.40;;
3563;SDS011;1796;52.388;13.096;2023-02-23T08:23:35;37.00;;;15.17;;
3563;SDS011;1796;52.388;13.096;2023-02-23T08:26:02;34.50;;;14.77;;
3563;SDS011;1796;52.388;13.096;2023-02-23T08:28:29;38.23;;;16.20;;
3563;SDS011;1796;52.388;13.096;2023-02-23T08:30:56;33.83;;;14.43;;
3563;SDS011;1796;52.388;13.096;2023-02-23T08:33:24;38.73;;;14.73;;
3563;SDS011;1796;52.388;13.096;2023-02-23T08:35:51;28.80;;;13.40;;
3563;SDS011;1796;52.388;13.096;2023-02-23T08:38:18;42.33;;;15.53;;
3563;SDS011;1796;52.388;13.096;2023-02-23T08:40:46;30.00;;;14.60;;
3563;SDS011;1796;52.388;13.096;2023-02-23T08:43:13;34.37;;;15.57;;
3563;SDS011;1796;52.388;13.096;2023-02-23T08:45:40;35.13;;;15.33;;
3563;SDS011;1796;52.388;13.096;2023-02-23T08:48:07;36.03;;;13.50;;
3563;SDS011;1796;52.388;13.096;2023-02-23T08:50:34;31.30;;;14.43;;
3563;SDS011;1796;52.388;13.096;2023-02-23T08:53:01;33.03;;;14.20;;
3563;SDS011;1796;52.388;13.096;2023-02-23T08:55:29;44.80;;;15.30;;
3563;SDS011;1796;52.388;13.096;2023-02-23T08:57:59;40.57;;;14.73;;
3563;SDS011;1796;52.388;13.096;2023-02-23T09:00:25;38.47;;;14.97;;
3563;SDS011;1796;52.388;13.096;2023-02-23T09:02:52;30.80;;;14.80;;
3563;SDS011;1796;52.388;13.096;2023-02-23T09:05:20;42.20;;;15.37;;
3563;SDS011;1796;52.388;13.096;2023-02-23T09:07:47;32.93;;;14.60;;
3563;SDS011;1796;52.388;13.096;2023-02-23T09:10:15;30.43;;;14.97;;
3563;SDS011;1796;52.388;13.096;2023-02-23T09:12:44;36.57;;;14.37;;
3563;SDS011;1796;52.388;13.096;2023-02-23T09:15:13;51.40;;;13.97;;
3563;SDS011;1796;52.388;13.096;2023-02-23T09:17:40;29.43;;;15.07;;
3563;SDS011;1796;52.388;13.096;2023-02-23T09:20:09;30.70;;;15.00;;
3563;SDS011;1796;52.388;13.096;2023-02-23T09:22:38;32.63;;;14.10;;
3563;SDS011;1796;52.388;13.096;2023-02-23T09:25:06;22.10;;;14.17;;
3563;SDS011;1796;52.388;13.096;2023-02-23T09:27:34;34.07;;;14.90;;
3563;SDS011;1796;52.388;13.096;2023-02-23T09:30:01;30.13;;;15.03;;
3563;SDS011;1796;52.388;13.096;2023-02-23T09:32:30;36.13;;;14.20;;
3563;SDS011;1796;52.388;13.096;2023-02-23T09:34:57;37.93;;;15.13;;
3563;SDS011;1796;52.388;13.096;2023-02-23T09:37:24;37.50;;;13.77;;
3563;SDS011;1796;52.388;13.096;2023-02-23T09:39:52;35.13;;;13.77;;
3563;SDS011;1796;52.388;13.096;2023-02-23T09:42:22;35.17;;;15.40;;
3563;SDS011;1796;52.388;13.096;2023-02-23T09:45:06;34.17;;;13.90;;
3563;SDS011;1796;52.388;13.096;2023-02-23T09:47:47;35.37;;;14.80;;
3563;SDS011;1796;52.388;13.096;2023-02-23T09:50:24;35.43;;;15.10;;
3563;SDS011;1796;52.388;13.096;2023-02-23T09:52:54;35.70;;;15.23;;
3563;SDS011;1796;52.388;13.096;2023-02-23T09:55:24;31.10;;;14.13;;
3563;SDS011;1796;52.388;13.096;2023-02-23T09:57:52;33.07;;;15.17;;
3563;SDS011;1796;52.388;13.096;2023-02-23T10:00:22;42.13;;;14.63;;
3563;SDS011;1796;52.388;13.096;2023-02-23T10:02:56;31.97;;;16.40;;
3563;SDS011;1796;52.388;13.096;2023-02-23T10:05:29;30.20;;;14.40;;
3563;SDS011;1796;52.388;13.096;2023-02-23T10:07:59;31.27;;;14.07;;
3563;SDS011;1796;52.388;13.096;2023-02-23T10:10:34;29.13;;;15.83;;
3563;SDS011;1796;52.388;13.096;2023-02-23T10:13:10;34.43;;;15.23;;
3563;SDS011;1796;52.388;13.096;2023-02-23T10:15:48;31.13;;;15.67;;
3563;SDS011;1796;52.388;13.096;2023-02-23T10:18:21;37.23;;;16.20;;
3563;SDS011;1796;52.388;13.096;2023-02-23T10:21:02;33.80;;;15.27;;
3563;SDS011;1796;52.388;13.096;2023-02-23T10:23:32;23.97;;;13.60;;
3563;SDS011;1796;52.388;13.096;2023-02-23T10:26:02;33.50;;;15.07;;
3563;SDS011;1796;52.388;13.096;2023-02-23T10:28:33;32.23;;;16.37;;
3563;SDS011;1796;52.388;13.096;2023-02-23T10:31:01;25.13;;;15.53;;
3563;SDS011;1796;52.388;13.096;2023-02-23T10:33:40;33.60;;;16.67;;
3563;SDS011;1796;52.388;13.096;2023-02-23T10:36:09;35.73;;;15.80;;
3563;SDS011;1796;52.388;13.096;2023-02-23T10:38:40;43.53;;;17.00;;
3563;SDS011;1796;52.388;13.096;2023-02-23T10:41:07;35.37;;;17.10;;
3563;SDS011;1796;52.388;13.096;2023-02-23T10:43:35;25.37;;;15.57;;
3563;SDS011;1796;52.388;13.096;2023-02-23T10:46:02;33.07;;;16.70;;
3563;SDS011;1796;52.388;13.096;2023-02-23T10:48:33;32.13;;;16.93;;
3563;SDS011;1796;52.388;13.096;2023-02-23T10:51:05;30.37;;;16.30;;
3563;SDS011;1796;52.388;13.096;2023-02-23T10:53:39;33.77;;;16.03;;
3563;SDS011;1796;52.388;13.096;2023-02-23T10:56:08;32.83;;;16.10;;
3563;SDS011;1796;52.388;13.096;2023-02-23T10:58:41;34.60;;;17.10;;
3563;SDS011;1796;52.388;13.096;2023-02-23T11:01:10;37.30;;;16.60;;
3563;SDS011;1796;52.388;13.096;2023-02-23T11:03:38;29.60;;;16.63;;
3563;SDS011;1796;52.388;13.096;2023-02-23T11:06:12;27.57;;;15.87;;
3563;SDS011;1796;52.388;13.096;2023-02-23T11:08:53;28.97;;;15.67;;
3563;SDS011;1796;52.388;13.096;2023-02-23T11:11:21;29.47;;;16.90;;
3563;SDS011;1796;52.388;13.096;2023-02-23T11:13:53;27.03;;;16.43;;
3563;SDS011;1796;52.388;13.096;2023-02-23T11:16:21;22.93;;;15.70;;
3563;SDS011;1796;52.388;13.096;2023-02-23T11:18:50;34.07;;;17.20;;
3563;SDS011;1796;52.388;13.096;2023-02-23T11:21:28;28.77;;;16.43;;
3563;SDS011;1796;52.388;13.096;2023-02-23T11:23:58;34.63;;;17.10;;
3563;SDS011;1796;52.388;13.096;2023-02-23T11:26:31;39.03;;;19.57;;
3563;SDS011;1796;52.388;13.096;2023-02-23T11:29:08;36.00;;;17.80;;
3563;SDS011;1796;52.388;13.096;2023-02-23T11:31:40;31.70;;;16.33;;
3563;SDS011;1796;52.388;13.096;2023-02-23T11:34:18;33.67;;;16.77;;
3563;SDS011;1796;52.388;13.096;2023-02-23T11:36:57;36.57;;;17.57;;
3563;SDS011;1796;52.388;13.096;2023-02-23T11:39:29;28.00;;;15.80;;
3563;SDS011;1796;52.388;13.096;2023-02-23T11:42:03;28.17;;;15.90;;
3563;SDS011;1796;52.388;13.096;2023-02-23T11:44:38;39.20;;;17.30;;
3563;SDS011;1796;52.388;13.096;2023-02-23T11:47:11;32.43;;;18.00;;
3563;SDS011;1796;52.388;13.096;2023-02-23T11:49:43;31.80;;;16.83;;
3563;SDS011;1796;52.388;13.096;2023-02-23T11:52:12;28.60;;;17.60;;
3563;SDS011;1796;52.388;13.096;2023-02-23T11:54:46;33.83;;;17.23;;
3563;SDS011;1796;52.388;13.096;2023-02-23T11:57:20;30.80;;;16.70;;
3563;SDS011;1796;52.388;13.096;2023-02-23T11:59:49;27.93;;;15.40;;
3563;SDS011;1796;52.388;13.096;2023-02-23T12:02:20;30.40;;;17.63;;
3563;SDS011;1796;52.388;13.096;2023-02-23T12:04:49;25.43;;;16.87;;
3563;SDS011;1796;52.388;13.096;2023-02-23T12:07:31;27.63;;;16.20;;
3563;SDS011;1796;52.388;13.096;2023-02-23T12:10:06;36.70;;;17.97;;
3563;SDS011;1796;52.388;13.096;2023-02-23T12:12:49;35.33;;;16.97;;
3563;SDS011;1796;52.388;13.096;2023-02-23T12:15:31;27.33;;;16.80;;
3563;SDS011;1796;52.388;13.096;2023-02-23T12:18:03;27.70;;;16.53;;
3563;SDS011;1796;52.388;13.096;2023-02-23T12:20:38;30.07;;;16.80;;
3563;SDS011;1796;52.388;13.096;2023-02-23T12:23:11;31.60;;;17.10;;
3563;SDS011;1796;52.388;13.096;2023-02-23T12:25:42;50.73;;;18.70;;
3563;SDS011;1796;52.388;13.096;2023-02-23T12:28:16;35.90;;;17.20;;
3563;SDS011;1796;52.388;13.096;2023-02-23T12:30:52;33.10;;;17.20;;
3563;SDS011;1796;52.388;13.096;2023-02-23T12:33:24;26.50;;;17.47;;
3563;SDS011;1796;52.388;13.096;2023-02-23T12:35:59;36.47;;;17.67;;
3563;SDS011;1796;52.388;13.096;2023-02-23T12:38:32;32.83;;;17.30;;
3563;SDS011;1796;52.388;13.096;2023-02-23T12:41:10;28.63;;;17.97;;
3563;SDS011;1796;52.388;13.096;2023-02-23T12:43:39;24.53;;;16.23;;
3563;SDS011;1796;52.388;13.096;2023-02-23T12:46:17;28.43;;;18.70;;
3563;SDS011;1796;52.388;13.096;2023-02-23T12:48:49;32.40;;;17.07;;
3563;SDS011;1796;52.388;13.096;2023-02-23T12:51:23;34.53;;;18.33;;
3563;SDS011;1796;52.388;13.096;2023-02-23T12:53:56;28.50;;;18.20;;
3563;SDS011;1796;52.388;13.096;2023-02-23T12:56:28;31.50;;;18.97;;
3563;SDS011;1796;52.388;13.096;2023-02-23T12:59:06;38.70;;;18.80;;
3563;SDS011;1796;52.388;13.096;2023-02-23T13:01:53;25.33;;;18.00;;
3563;SDS011;1796;52.388;13.096;2023-02-23T13:04:28;37.03;;;19.63;;
3563;SDS011;1796;52.388;13.096;2023-02-23T13:07:13;35.43;;;20.00;;
3563;SDS011;1796;52.388;13.096;2023-02-23T13:09:51;37.33;;;18.83;;
3563;SDS011;1796;52.388;13.096;2023-02-23T13:12:31;32.83;;;18.60;;
3563;SDS011;1796;52.388;13.096;2023-02-23T13:15:10;30.50;;;19.60;;
3563;SDS011;1796;52.388;13.096;2023-02-23T13:17:46;30.67;;;19.33;;
3563;SDS011;1796;52.388;13.096;2023-02-23T13:20:19;36.53;;;22.43;;
3563;SDS011;1796;52.388;13.096;2023-02-23T13:22:50;33.07;;;21.30;;
3563;SDS011;1796;52.388;13.096;2023-02-23T13:25:27;45.40;;;22.63;;
3563;SDS011;1796;52.388;13.096;2023-02-23T13:27:59;43.13;;;23.00;;
3563;SDS011;1796;52.388;13.096;2023-02-23T13:30:27;44.03;;;25.03;;
3563;SDS011;1796;52.388;13.096;2023-02-23T13:32:57;41.60;;;25.73;;
3563;SDS011;1796;52.388;13.096;2023-02-23T13:35:26;52.73;;;26.20;;
3563;SDS011;1796;52.388;13.096;2023-02-23T13:38:00;44.63;;;25.67;;
3563;SDS011;1796;52.388;13.096;2023-02-23T13:40:35;44.00;;;26.80;;
3563;SDS011;1796;52.388;13.096;2023-02-23T13:43:08;47.27;;;27.73;;
3563;SDS011;1796;52.388;13.096;2023-02-23T13:45:51;51.70;;;28.67;;
3563;SDS011;1796;52.388;13.096;2023-02-23T13:48:30;54.70;;;28.03;;
3563;SDS011;1796;52.388;13.096;2023-02-23T13:51:05;54.73;;;29.10;;
3563;SDS011;1796;52.388;13.096;2023-02-23T13:53:40;52.07;;;28.90;;
3563;SDS011;1796;52.388;13.096;2023-02-23T13:56:10;47.70;;;27.73;;
3563;SDS011;1796;52.388;13.096;2023-02-23T13:58:44;50.80;;;28.37;;
3563;SDS011;1796;52.388;13.096;2023-02-23T14:01:14;50.97;;;28.47;;
3563;SDS011;1796;52.388;13.096;2023-02-23T14:03:46;64.47;;;28.47;;
3563;SDS011;1796;52.388;13.096;2023-02-23T14:06:19;50.13;;;29.13;;
3563;SDS011;1796;52.388;13.096;2023-02-23T14:08:50;50.77;;;28.27;;
3563;SDS011;1796;52.388;13.096;2023-02-23T14:14:13;56.97;;;30.33;;
3563;SDS011;1796;52.388;13.096;2023-02-23T14:17:11;56.33;;;31.30;;
3563;SDS011;1796;52.388;13.096;2023-02-23T14:20:11;61.80;;;30.07;;
3563;SDS011;1796;52.388;13.096;2023-02-23T14:23:11;53.87;;;29.70;;
3563;SDS011;1796;52.388;13.096;2023-02-23T14:25:46;55.17;;;29.97;;
3563;SDS011;1796;52.388;13.096;2023-02-23T14:28:31;59.20;;;30.70;;
3563;SDS011;1796;52.388;13.096;2023-02-23T14:31:01;59.60;;;30.57;;
3563;SDS011;1796;52.388;13.096;2023-02-23T14:33:48;66.27;;;33.97;;
3563;SDS011;1796;52.388;13.096;2023-02-23T14:36:36;74.27;;;36.93;;
3563;SDS011;1796;52.388;13.096;2023-02-23T14:39:08;62.77;;;33.97;;
3563;SDS011;1796;52.388;13.096;2023-02-23T14:41:44;66.60;;;33.70;;
3563;SDS011;1796;52.388;13.096;2023-02-23T14:44:16;67.50;;;34.57;;
3563;SDS011;1796;52.388;13.096;2023-02-23T14:46:49;71.13;;;36.47;;
3563;SDS011;1796;52.388;13.096;2023-02-23T14:49:21;88.87;;;39.10;;
3563;SDS011;1796;52.388;13.096;2023-02-23T14:51:52;62.23;;;34.33;;
3563;SDS011;1796;52.388;13.096;2023-02-23T14:54:24;85.40;;;37.97;;
3563;SDS011;1796;52.388;13.096;2023-02-23T14:56:55;71.93;;;36.60;;
3563;SDS011;1796;52.388;13.096;2023-02-23T14:59:25;75.60;;;37.10;;
3563;SDS011;1796;52.388;13.096;2023-02-23T15:01:54;82.03;;;37.90;;
3563;SDS011;1796;52.388;13.096;2023-02-23T15:04:25;87.13;;;39.53;;
3563;SDS011;1796;52.388;13.096;2023-02-23T15:06:54;91.60;;;40.00;;
3563;SDS011;1796;52.388;13.096;2023-02-23T15:09:34;82.80;;;40.50;;
3563;SDS011;1796;52.388;13.096;2023-02-23T15:12:06;88.13;;;38.40;;
3563;SDS011;1796;52.388;13.096;2023-02-23T15:14:40;82.83;;;38.37;;
3563;SDS011;1796;52.388;13.096;2023-02-23T15:17:14;85.63;;;40.27;;
3563;SDS011;1796;52.388;13.096;2023-02-23T15:19:44;92.13;;;39.53;;
3563;SDS011;1796;52.388;13.096;2023-02-23T15:22:18;87.77;;;39.27;;
3563;SDS011;1796;52.388;13.096;2023-02-23T15:24:49;87.70;;;38.30;;
3563;SDS011;1796;52.388;13.096;2023-02-23T15:27:18;73.83;;;37.77;;
3563;SDS011;1796;52.388;13.096;2023-02-23T15:29:51;89.07;;;38.70;;
3563;SDS011;1796;52.388;13.096;2023-02-23T15:32:20;87.17;;;39.40;;
3563;SDS011;1796;52.388;13.096;2023-02-23T15:34:49;85.70;;;39.47;;
3563;SDS011;1796;52.388;13.096;2023-02-23T15:37:19;79.10;;;39.17;;
3563;SDS011;1796;52.388;13.096;2023-02-23T15:39:54;91.40;;;40.57;;
3563;SDS011;1796;52.388;13.096;2023-02-23T15:42:24;98.43;;;40.70;;
3563;SDS011;1796;52.388;13.096;2023-02-23T15:44:58;96.17;;;42.30;;
3563;SDS011;1796;52.388;13.096;2023-02-23T15:47:32;94.80;;;39.17;;
3563;SDS011;1796;52.388;13.096;2023-02-23T15:50:05;94.33;;;41.03;;
3563;SDS011;1796;52.388;13.096;2023-02-23T15:52:39;84.00;;;40.17;;
3563;SDS011;1796;52.388;13.096;2023-02-23T15:55:13;95.73;;;41.90;;
3563;SDS011;1796;52.388;13.096;2023-02-23T15:57:46;101.70;;;45.17;;
3563;SDS011;1796;52.388;13.096;2023-02-23T16:00:20;105.30;;;45.17;;
3563;SDS011;1796;52.388;13.096;2023-02-23T16:02:57;90.53;;;40.00;;
3563;SDS011;1796;52.388;13.096;2023-02-23T16:05:29;99.93;;;42.50;;
3563;SDS011;1796;52.388;13.096;2023-02-23T16:08:02;93.20;;;41.57;;
3563;SDS011;1796;52.388;13.096;2023-02-23T16:10:38;94.80;;;41.43;;
3563;SDS011;1796;52.388;13.096;2023-02-23T16:13:09;95.07;;;42.30;;
3563;SDS011;1796;52.388;13.096;2023-02-23T16:15:40;88.47;;;40.80;;
3563;SDS011;1796;52.388;13.096;2023-02-23T16:18:10;96.97;;;41.77;;
3563;SDS011;1796;52.388;13.096;2023-02-23T16:20:41;100.80;;;43.30;;
3563;SDS011;1796;52.388;13.096;2023-02-23T16:23:12;100.63;;;44.17;;
3563;SDS011;1796;52.388;13.096;2023-02-23T16:25:47;102.07;;;44.40;;
3563;SDS011;1796;52.388;13.096;2023-02-23T16:28:19;100.17;;;43.80;;
3563;SDS011;1796;52.388;13.096;2023-02-23T16:30:55;107.63;;;42.70;;
3563;SDS011;1796;52.388;13.096;2023-02-23T16:33:24;99.30;;;43.70;;
3563;SDS011;1796;52.388;13.096;2023-02-23T16:35:53;93.67;;;42.57;;
3563;SDS011;1796;52.388;13.096;2023-02-23T16:38:34;90.77;;;41.97;;
3563;SDS011;1796;52.388;13.096;2023-02-23T16:41:02;93.37;;;42.10;;
3563;SDS011;1796;52.388;13.096;2023-02-23T16:43:31;109.73;;;44.30;;
3563;SDS011;1796;52.388;13.096;2023-02-23T16:46:01;105.07;;;44.10;;
3563;SDS011;1796;52.388;13.096;2023-02-23T16:48:28;110.67;;;46.17;;
3563;SDS011;1796;52.388;13.096;2023-02-23T16:50:55;88.33;;;42.33;;
3563;SDS011;1796;52.388;13.096;2023-02-23T16:53:22;99.47;;;44.13;;
3563;SDS011;1796;52.388;13.096;2023-02-23T16:55:50;99.87;;;45.03;;
3563;SDS011;1796;52.388;13.096;2023-02-23T16:58:32;105.60;;;40.30;;
3563;SDS011;1796;52.388;13.096;2023-02-23T17:01:10;104.47;;;43.63;;
3563;SDS011;1796;52.388;13.096;2023-02-23T17:03:43;103.13;;;43.43;;
3563;SDS011;1796;52.388;13.096;2023-02-23T17:06:10;107.33;;;46.40;;
3563;SDS011;1796;52.388;13.096;2023-02-23T17:08:37;111.73;;;45.37;;
3563;SDS011;1796;52.388;13.096;2023-02-23T17:11:04;127.37;;;48.60;;
3563;SDS011;1796;52.388;13.096;2023-02-23T17:13:31;121.70;;;47.10;;
3563;SDS011;1796;52.388;13.096;2023-02-23T17:15:59;105.97;;;47.30;;
3563;SDS011;1796;52.388;13.096;2023-02-23T17:18:29;118.67;;;48.10;;
3563;SDS011;1796;52.388;13.096;2023-02-23T17:20:58;122.47;;;48.43;;
3563;SDS011;1796;52.388;13.096;2023-02-23T17:23:28;118.73;;;46.70;;
3563;SDS011;1796;52.388;13.096;2023-02-23T17:26:04;137.30;;;49.60;;
3563;SDS011;1796;52.388;13.096;2023-02-23T17:28:32;124.27;;;48.77;;
3563;SDS011;1796;52.388;13.096;2023-02-23T17:30:59;129.87;;;51.10;;
3563;SDS011;1796;52.388;13.096;2023-02-23T17:33:28;136.50;;;49.87;;
3563;SDS011;1796;52.388;13.096;2023-02-23T17:35:57;121.93;;;50.30;;
3563;SDS011;1796;52.388;13.096;2023-02-23T17:38:24;124.37;;;50.10;;
3563;SDS011;1796;52.388;13.096;2023-02-23T17:40:57;127.00;;;49.87;;
3563;SDS011;1796;52.388;13.096;2023-02-23T17:43:24;123.53;;;50.17;;
3563;SDS011;1796;52.388;13.096;2023-02-23T17:45:51;128.50;;;49.77;;
3563;SDS011;1796;52.388;13.096;2023-02-23T17:48:19;116.90;;;47.80;;
3563;SDS011;1796;52.388;13.096;2023-02-23T17:50:48;126.47;;;51.60;;
3563;SDS011;1796;52.388;13.096;2023-02-23T17:53:22;139.60;;;51.00;;
3563;SDS011;1796;52.388;13.096;2023-02-23T17:55:49;124.00;;;49.80;;
3563;SDS011;1796;52.388;13.096;2023-02-23T17:58:16;151.07;;;55.93;;
3563;SDS011;1796;52.388;13.096;2023-02-23T18:00:43;130.10;;;49.30;;
3563;SDS011;1796;52.388;13.096;2023-02-23T18:03:10;120.07;;;49.67;;
3563;SDS011;1796;52.388;13.096;2023-02-23T18:05:36;120.03;;;51.57;;
3563;SDS011;1796;52.388;13.096;2023-02-23T18:08:05;135.63;;;51.87;;
3563;SDS011;1796;52.388;13.096;2023-02-23T18:10:31;125.67;;;48.67;;
3563;SDS011;1796;52.388;13.096;2023-02-23T18:13:00;135.57;;;50.67;;
3563;SDS011;1796;52.388;13.096;2023-02-23T18:15:27;123.90;;;49.90;;
3563;SDS011;1796;52.388;13.096;2023-02-23T18:17:54;124.87;;;51.37;;
3563;SDS011;1796;52.388;13.096;2023-02-23T18:20:22;119.67;;;48.70;;
3563;SDS011;1796;52.388;13.096;2023-02-23T18:22:50;122.13;;;49.27;;
3563;SDS011;1796;52.388;13.096;2023-02-23T18:25:22;127.33;;;49.47;;
3563;SDS011;1796;52.388;13.096;2023-02-23T18:27:54;121.57;;;50.70;;
3563;SDS011;1796;52.388;13.096;2023-02-23T18:30:23;126.70;;;51.03;;
3563;SDS011;1796;52.388;13.096;2023-02-23T18:32:53;131.37;;;48.73;;
3563;SDS011;1796;52.388;13.096;2023-02-23T18:35:21;129.40;;;49.10;;
3563;SDS011;1796;52.388;13.096;2023-02-23T18:37:48;118.73;;;48.77;;
3563;SDS011;1796;52.388;13.096;2023-02-23T18:40:15;116.97;;;48.47;;
3563;SDS011;1796;52.388;13.096;2023-02-23T18:42:49;104.77;;;47.53;;
3563;SDS011;1796;52.388;13.096;2023-02-23T18:45:16;121.43;;;49.83;;
3563;SDS011;1796;52.388;13.096;2023-02-23T18:47:43;128.80;;;48.37;;
3563;SDS011;1796;52.388;13.096;2023-02-23T18:50:10;129.00;;;48.77;;
3563;SDS011;1796;52.388;13.096;2023-02-23T18:52:43;112.30;;;47.90;;
3563;SDS011;1796;52.388;13.096;2023-02-23T18:55:10;117.13;;;47.03;;
3563;SDS011;1796;52.388;13.096;2023-02-23T18:57:37;115.13;;;45.53;;
3563;SDS011;1796;52.388;13.096;2023-02-23T19:00:06;115.70;;;46.60;;
3563;SDS011;1796;52.388;13.096;2023-02-23T19:02:37;115.20;;;42.57;;
3563;SDS011;1796;52.388;13.096;2023-02-23T19:05:04;107.97;;;44.43;;